Time,TemperatureF,DewpointF,PressureIn,WindDirection,WindDirectionDegrees,WindSpeedMPH,WindSpeedGustMPH,Humidity,HourlyPrecipIn,Conditions,Clouds,dailyrainin,SoftwareType,DateUTC
2013-02-23 00:03:00,38.1,38.1,30.12,North,-999,-999.0,-999.0,100,0.03,,,0.00,AD6XL-WX-0.1,2013-02-23 08:03:00,
2013-02-23 00:08:00,38.1,38.1,30.12,North,-999,-999.0,-999.0,100,0.03,,,0.00,AD6XL-WX-0.1,2013-02-23 08:08:00,
2013-02-23 00:13:00,38.0,38.0,30.12,North,-999,-999.0,-999.0,100,0.03,,,0.00,AD6XL-WX-0.1,2013-02-23 08:13:00,
2013-02-23 00:19:00,37.9,37.9,30.12,North,-999,-999.0,-999.0,100,0.03,,,0.01,AD6XL-WX-0.1,2013-02-23 08:19:00,
2013-02-23 00:24:00,37.8,37.8,30.13,North,-999,-999.0,-999.0,100,0.02,,,0.01,AD6XL-WX-0.1,2013-02-23 08:24:00,
2013-02-23 00:29:00,37.8,37.8,30.13,North,-999,-999.0,-999.0,100,0.02,,,0.01,AD6XL-WX-0.1,2013-02-23 08:29:00,
2013-02-23 00:34:00,37.8,37.8,30.13,North,-999,-999.0,-999.0,100,0.02,,,0.01,AD6XL-WX-0.1,2013-02-23 08:34:00,
2013-02-23 00:39:00,37.7,37.7,30.12,North,-999,-999.0,-999.0,100,0.01,,,0.01,AD6XL-WX-0.1,2013-02-23 08:39:00,
2013-02-23 00:44:00,37.6,37.6,30.12,North,-999,-999.0,-999.0,100,0.01,,,0.01,AD6XL-WX-0.1,2013-02-23 08:44:00,
2013-02-23 00:49:00,37.6,37.6,30.12,North,-999,-999.0,-999.0,100,0.01,,,0.01,AD6XL-WX-0.1,2013-02-23 08:49:00,
2013-02-23 00:54:00,37.4,37.4,30.12,North,-999,-999.0,-999.0,100,0.01,,,0.01,AD6XL-WX-0.1,2013-02-23 08:54:00,
2013-02-23 00:59:00,37.2,37.2,30.13,North,-999,-999.0,-999.0,100,0.01,,,0.01,AD6XL-WX-0.1,2013-02-23 08:59:00,
2013-02-23 01:04:00,36.9,36.9,30.13,North,-999,-999.0,-999.0,100,0.01,,,0.01,AD6XL-WX-0.1,2013-02-23 09:04:00,
2013-02-23 01:09:00,36.7,36.7,30.13,North,-999,-999.0,-999.0,100,0.01,,,0.01,AD6XL-WX-0.1,2013-02-23 09:09:00,
2013-02-23 01:14:00,36.4,36.4,30.13,North,-999,-999.0,-999.0,100,0.01,,,0.01,AD6XL-WX-0.1,2013-02-23 09:14:00,
2013-02-23 01:20:00,36.3,36.3,30.13,North,-999,-999.0,-999.0,100,0.00,,,0.01,AD6XL-WX-0.1,2013-02-23 09:20:00,
2013-02-23 01:25:00,36.1,36.1,30.14,North,-999,-999.0,-999.0,100,0.00,,,0.01,AD6XL-WX-0.1,2013-02-23 09:25:00,
2013-02-23 01:30:00,36.0,36.0,30.14,North,-999,-999.0,-999.0,100,0.00,,,0.01,AD6XL-WX-0.1,2013-02-23 09:30:00,
2013-02-23 01:35:00,36.1,36.1,30.14,North,-999,-999.0,-999.0,100,0.00,,,0.01,AD6XL-WX-0.1,2013-02-23 09:35:00,
2013-02-23 01:40:00,36.3,36.3,30.15,North,-999,-999.0,-999.0,100,0.00,,,0.01,AD6XL-WX-0.1,2013-02-23 09:40:00,
2013-02-23 01:45:00,36.4,36.4,30.15,North,-999,-999.0,-999.0,100,0.00,,,0.01,AD6XL-WX-0.1,2013-02-23 09:45:00,
2013-02-23 01:50:00,36.6,36.6,30.15,North,-999,-999.0,-999.0,100,0.00,,,0.01,AD6XL-WX-0.1,2013-02-23 09:50:00,
2013-02-23 01:55:00,36.7,36.7,30.15,North,-999,-999.0,-999.0,100,0.00,,,0.01,AD6XL-WX-0.1,2013-02-23 09:55:00,
2013-02-23 02:00:00,36.9,36.9,30.15,North,-999,-999.0,-999.0,100,0.00,,,0.01,AD6XL-WX-0.1,2013-02-23 10:00:00,
2013-02-23 02:05:00,37.1,37.1,30.15,North,-999,-999.0,-999.0,100,0.00,,,0.01,AD6XL-WX-0.1,2013-02-23 10:05:00,
2013-02-23 02:10:00,37.2,37.2,30.15,North,-999,-999.0,-999.0,100,0.00,,,0.01,AD6XL-WX-0.1,2013-02-23 10:10:00,
2013-02-23 02:15:00,37.4,37.4,30.16,North,-999,-999.0,-999.0,100,0.00,,,0.01,AD6XL-WX-0.1,2013-02-23 10:15:00,
2013-02-23 02:21:00,37.6,37.6,30.16,North,-999,-999.0,-999.0,100,0.00,,,0.01,AD6XL-WX-0.1,2013-02-23 10:21:00,
2013-02-23 02:26:00,37.7,37.7,30.16,North,-999,-999.0,-999.0,100,0.00,,,0.01,AD6XL-WX-0.1,2013-02-23 10:26:00,
2013-02-23 02:31:00,37.8,37.8,30.16,North,-999,-999.0,-999.0,100,0.00,,,0.01,AD6XL-WX-0.1,2013-02-23 10:31:00,
2013-02-23 02:36:00,37.8,37.8,30.16,North,-999,-999.0,-999.0,100,0.00,,,0.01,AD6XL-WX-0.1,2013-02-23 10:36:00,
2013-02-23 02:41:00,37.7,37.7,30.16,North,-999,-999.0,-999.0,100,0.00,,,0.01,AD6XL-WX-0.1,2013-02-23 10:41:00,
2013-02-23 02:46:00,37.7,37.7,30.16,North,-999,-999.0,-999.0,100,0.00,,,0.01,AD6XL-WX-0.1,2013-02-23 10:46:00,
2013-02-23 02:51:00,37.8,37.8,30.16,North,-999,-999.0,-999.0,100,0.00,,,0.01,AD6XL-WX-0.1,2013-02-23 10:51:00,
2013-02-23 02:56:00,37.7,37.7,30.15,North,-999,-999.0,-999.0,100,0.00,,,0.01,AD6XL-WX-0.1,2013-02-23 10:56:00,
2013-02-23 03:01:00,37.6,37.6,30.16,North,-999,-999.0,-999.0,100,0.00,,,0.01,AD6XL-WX-0.1,2013-02-23 11:01:00,
2013-02-23 03:06:00,37.4,37.4,30.16,North,-999,-999.0,-999.0,100,0.00,,,0.01,AD6XL-WX-0.1,2013-02-23 11:06:00,
2013-02-23 03:11:00,37.2,37.2,30.16,North,-999,-999.0,-999.0,100,0.00,,,0.01,AD6XL-WX-0.1,2013-02-23 11:11:00,
2013-02-23 03:16:00,37.2,37.2,30.16,North,-999,-999.0,-999.0,100,0.00,,,0.01,AD6XL-WX-0.1,2013-02-23 11:16:00,
2013-02-23 03:22:00,37.0,37.0,30.16,North,-999,-999.0,-999.0,100,0.00,,,0.01,AD6XL-WX-0.1,2013-02-23 11:22:00,
2013-02-23 03:28:00,36.9,36.9,30.17,North,-999,-999.0,-999.0,100,0.00,,,0.01,AD6XL-WX-0.1,2013-02-23 11:28:00,
2013-02-23 03:34:00,36.8,36.8,30.17,North,-999,-999.0,-999.0,100,0.00,,,0.01,AD6XL-WX-0.1,2013-02-23 11:34:00,
2013-02-23 03:39:00,36.7,36.7,30.17,North,-999,-999.0,-999.0,100,0.00,,,0.01,AD6XL-WX-0.1,2013-02-23 11:39:00,
2013-02-23 03:44:00,36.7,36.7,30.17,North,-999,-999.0,-999.0,100,0.00,,,0.01,AD6XL-WX-0.1,2013-02-23 11:44:00,
2013-02-23 03:49:00,36.7,36.7,30.17,North,-999,-999.0,-999.0,100,0.00,,,0.01,AD6XL-WX-0.1,2013-02-23 11:49:00,
2013-02-23 03:54:00,36.7,36.7,30.17,North,-999,-999.0,-999.0,100,0.00,,,0.01,AD6XL-WX-0.1,2013-02-23 11:54:00,
2013-02-23 03:59:00,36.8,36.8,30.18,North,-999,-999.0,-999.0,100,0.00,,,0.01,AD6XL-WX-0.1,2013-02-23 11:59:00,
2013-02-23 04:04:00,36.9,36.9,30.17,North,-999,-999.0,-999.0,100,0.00,,,0.01,AD6XL-WX-0.1,2013-02-23 12:04:00,
2013-02-23 04:09:00,36.9,36.9,30.18,North,-999,-999.0,-999.0,100,0.00,,,0.01,AD6XL-WX-0.1,2013-02-23 12:09:00,
2013-02-23 04:14:00,36.9,36.9,30.18,North,-999,-999.0,-999.0,100,0.00,,,0.01,AD6XL-WX-0.1,2013-02-23 12:14:00,
2013-02-23 04:19:00,36.8,36.8,30.18,North,-999,-999.0,-999.0,100,0.00,,,0.01,AD6XL-WX-0.1,2013-02-23 12:19:00,
2013-02-23 04:24:00,36.8,36.8,30.18,North,-999,-999.0,-999.0,100,0.00,,,0.01,AD6XL-WX-0.1,2013-02-23 12:24:00,
2013-02-23 04:30:00,36.9,36.9,30.19,North,-999,-999.0,-999.0,100,0.00,,,0.01,AD6XL-WX-0.1,2013-02-23 12:30:00,
2013-02-23 04:35:00,37.0,37.0,30.19,North,-999,-999.0,-999.0,100,0.00,,,0.01,AD6XL-WX-0.1,2013-02-23 12:35:00,
2013-02-23 04:40:00,37.1,37.1,30.19,North,-999,-999.0,-999.0,100,0.00,,,0.01,AD6XL-WX-0.1,2013-02-23 12:40:00,
2013-02-23 04:45:00,37.2,37.2,30.19,North,-999,-999.0,-999.0,100,0.00,,,0.01,AD6XL-WX-0.1,2013-02-23 12:45:00,
2013-02-23 04:50:00,37.2,37.2,30.19,North,-999,-999.0,-999.0,100,0.00,,,0.01,AD6XL-WX-0.1,2013-02-23 12:50:00,
2013-02-23 04:55:00,37.4,37.4,30.20,North,-999,-999.0,-999.0,100,0.00,,,0.01,AD6XL-WX-0.1,2013-02-23 12:55:00,
2013-02-23 05:00:00,37.5,37.5,30.20,North,-999,-999.0,-999.0,100,0.00,,,0.01,AD6XL-WX-0.1,2013-02-23 13:00:00,
2013-02-23 05:05:00,37.6,37.6,30.20,North,-999,-999.0,-999.0,100,0.00,,,0.01,AD6XL-WX-0.1,2013-02-23 13:05:00,
2013-02-23 05:10:00,37.6,37.6,30.20,North,-999,-999.0,-999.0,100,0.00,,,0.01,AD6XL-WX-0.1,2013-02-23 13:10:00,
2013-02-23 05:15:00,37.6,37.6,30.20,North,-999,-999.0,-999.0,100,0.00,,,0.01,AD6XL-WX-0.1,2013-02-23 13:15:00,
2013-02-23 05:20:00,37.6,37.6,30.20,North,-999,-999.0,-999.0,100,0.00,,,0.01,AD6XL-WX-0.1,2013-02-23 13:20:00,
2013-02-23 05:25:00,37.7,37.7,30.20,North,-999,-999.0,-999.0,100,0.00,,,0.01,AD6XL-WX-0.1,2013-02-23 13:25:00,
2013-02-23 05:31:00,37.7,37.7,30.20,North,-999,-999.0,-999.0,100,0.00,,,0.01,AD6XL-WX-0.1,2013-02-23 13:31:00,
2013-02-23 05:36:00,37.7,37.7,30.20,North,-999,-999.0,-999.0,100,0.00,,,0.01,AD6XL-WX-0.1,2013-02-23 13:36:00,
2013-02-23 05:41:00,37.7,37.7,30.21,North,-999,-999.0,-999.0,100,0.00,,,0.01,AD6XL-WX-0.1,2013-02-23 13:41:00,
2013-02-23 05:46:00,37.6,37.6,30.21,North,-999,-999.0,-999.0,100,0.00,,,0.01,AD6XL-WX-0.1,2013-02-23 13:46:00,
2013-02-23 05:51:00,37.6,37.6,30.21,North,-999,-999.0,-999.0,100,0.00,,,0.01,AD6XL-WX-0.1,2013-02-23 13:51:00,
2013-02-23 05:56:00,37.6,37.6,30.22,North,-999,-999.0,-999.0,100,0.00,,,0.01,AD6XL-WX-0.1,2013-02-23 13:56:00,
2013-02-23 06:01:00,37.6,37.6,30.22,North,-999,-999.0,-999.0,100,0.00,,,0.01,AD6XL-WX-0.1,2013-02-23 14:01:00,
2013-02-23 06:06:00,37.6,37.6,30.22,North,-999,-999.0,-999.0,100,0.00,,,0.01,AD6XL-WX-0.1,2013-02-23 14:06:00,
2013-02-23 06:11:00,37.7,37.7,30.23,North,-999,-999.0,-999.0,100,0.00,,,0.01,AD6XL-WX-0.1,2013-02-23 14:11:00,
2013-02-23 06:16:00,37.8,37.8,30.23,North,-999,-999.0,-999.0,100,0.00,,,0.01,AD6XL-WX-0.1,2013-02-23 14:16:00,
2013-02-23 06:21:00,37.8,37.8,30.23,North,-999,-999.0,-999.0,100,0.00,,,0.01,AD6XL-WX-0.1,2013-02-23 14:21:00,
2013-02-23 06:26:00,37.8,37.8,30.23,North,-999,-999.0,-999.0,100,0.00,,,0.01,AD6XL-WX-0.1,2013-02-23 14:26:00,
2013-02-23 06:32:00,37.8,37.8,30.24,North,-999,-999.0,-999.0,100,0.00,,,0.01,AD6XL-WX-0.1,2013-02-23 14:32:00,
2013-02-23 06:37:00,37.8,37.8,30.24,North,-999,-999.0,-999.0,100,0.00,,,0.01,AD6XL-WX-0.1,2013-02-23 14:37:00,
2013-02-23 06:42:00,37.9,37.9,30.24,North,-999,-999.0,-999.0,100,0.00,,,0.01,AD6XL-WX-0.1,2013-02-23 14:42:00,
2013-02-23 06:47:00,38.0,38.0,30.24,North,-999,-999.0,-999.0,100,0.01,,,0.02,AD6XL-WX-0.1,2013-02-23 14:47:00,
2013-02-23 06:52:00,38.1,38.1,30.25,North,-999,-999.0,-999.0,100,0.01,,,0.02,AD6XL-WX-0.1,2013-02-23 14:52:00,
2013-02-23 06:57:00,38.1,38.1,30.25,North,-999,-999.0,-999.0,100,0.01,,,0.02,AD6XL-WX-0.1,2013-02-23 14:57:00,
2013-02-23 07:02:00,38.1,38.1,30.25,North,-999,-999.0,-999.0,100,0.01,,,0.02,AD6XL-WX-0.1,2013-02-23 15:02:00,
2013-02-23 07:07:00,38.1,38.1,30.25,North,-999,-999.0,-999.0,100,0.01,,,0.02,AD6XL-WX-0.1,2013-02-23 15:07:00,
2013-02-23 07:12:00,38.1,38.1,30.25,North,-999,-999.0,-999.0,100,0.01,,,0.02,AD6XL-WX-0.1,2013-02-23 15:12:00,
2013-02-23 07:17:00,38.1,38.1,30.25,North,-999,-999.0,-999.0,100,0.02,,,0.03,AD6XL-WX-0.1,2013-02-23 15:17:00,
2013-02-23 07:22:00,38.1,38.1,30.25,North,-999,-999.0,-999.0,100,0.02,,,0.03,AD6XL-WX-0.1,2013-02-23 15:22:00,
2013-02-23 07:27:00,38.1,38.1,30.25,North,-999,-999.0,-999.0,100,0.02,,,0.03,AD6XL-WX-0.1,2013-02-23 15:27:00,
2013-02-23 07:33:00,38.1,38.1,30.25,North,-999,-999.0,-999.0,100,0.02,,,0.03,AD6XL-WX-0.1,2013-02-23 15:33:00,
2013-02-23 07:38:00,38.1,38.1,30.25,North,-999,-999.0,-999.0,100,0.03,,,0.04,AD6XL-WX-0.1,2013-02-23 15:38:00,
2013-02-23 07:43:00,38.0,38.0,30.25,North,-999,-999.0,-999.0,100,0.03,,,0.04,AD6XL-WX-0.1,2013-02-23 15:43:00,
2013-02-23 07:48:00,37.9,37.9,30.26,North,-999,-999.0,-999.0,100,0.02,,,0.04,AD6XL-WX-0.1,2013-02-23 15:48:00,
2013-02-23 07:53:00,37.8,37.8,30.26,North,-999,-999.0,-999.0,100,0.02,,,0.04,AD6XL-WX-0.1,2013-02-23 15:53:00,
2013-02-23 07:58:00,37.8,37.8,30.26,North,-999,-999.0,-999.0,100,0.02,,,0.04,AD6XL-WX-0.1,2013-02-23 15:58:00,
2013-02-23 08:03:00,37.7,37.7,30.26,North,-999,-999.0,-999.0,100,0.02,,,0.04,AD6XL-WX-0.1,2013-02-23 16:03:00,
2013-02-23 08:08:00,37.6,37.6,30.27,North,-999,-999.0,-999.0,100,0.02,,,0.04,AD6XL-WX-0.1,2013-02-23 16:08:00,
2013-02-23 08:13:00,37.6,37.6,30.27,North,-999,-999.0,-999.0,100,0.02,,,0.04,AD6XL-WX-0.1,2013-02-23 16:13:00,
2013-02-23 08:18:00,37.7,37.7,30.27,North,-999,-999.0,-999.0,100,0.01,,,0.04,AD6XL-WX-0.1,2013-02-23 16:18:00,
2013-02-23 08:23:00,37.8,37.8,30.28,North,-999,-999.0,-999.0,100,0.01,,,0.04,AD6XL-WX-0.1,2013-02-23 16:23:00,
2013-02-23 08:28:00,37.9,37.9,30.28,North,-999,-999.0,-999.0,100,0.01,,,0.04,AD6XL-WX-0.1,2013-02-23 16:28:00,
2013-02-23 08:34:00,38.1,38.1,30.29,North,-999,-999.0,-999.0,100,0.01,,,0.04,AD6XL-WX-0.1,2013-02-23 16:34:00,
2013-02-23 08:39:00,38.4,38.4,30.29,North,-999,-999.0,-999.0,100,0.00,,,0.04,AD6XL-WX-0.1,2013-02-23 16:39:00,
2013-02-23 08:44:00,38.7,38.7,30.30,North,-999,-999.0,-999.0,100,0.00,,,0.04,AD6XL-WX-0.1,2013-02-23 16:44:00,
2013-02-23 08:49:00,39.0,39.0,30.30,North,-999,-999.0,-999.0,100,0.00,,,0.04,AD6XL-WX-0.1,2013-02-23 16:49:00,
2013-02-23 08:54:00,39.3,39.3,30.30,North,-999,-999.0,-999.0,100,0.00,,,0.04,AD6XL-WX-0.1,2013-02-23 16:54:00,
2013-02-23 08:59:00,39.4,39.4,30.30,North,-999,-999.0,-999.0,100,0.00,,,0.04,AD6XL-WX-0.1,2013-02-23 16:59:00,
2013-02-23 09:04:00,39.5,39.5,30.30,North,-999,-999.0,-999.0,100,0.00,,,0.04,AD6XL-WX-0.1,2013-02-23 17:04:00,
2013-02-23 09:09:00,39.5,39.5,30.30,North,-999,-999.0,-999.0,100,0.00,,,0.04,AD6XL-WX-0.1,2013-02-23 17:09:00,
2013-02-23 09:14:00,39.5,39.5,30.30,North,-999,-999.0,-999.0,100,0.00,,,0.04,AD6XL-WX-0.1,2013-02-23 17:14:00,
2013-02-23 09:19:00,39.6,39.6,30.30,North,-999,-999.0,-999.0,100,0.00,,,0.04,AD6XL-WX-0.1,2013-02-23 17:19:00,
2013-02-23 09:24:00,39.7,39.7,30.31,North,-999,-999.0,-999.0,100,0.00,,,0.04,AD6XL-WX-0.1,2013-02-23 17:24:00,
2013-02-23 09:29:00,39.8,39.8,30.31,North,-999,-999.0,-999.0,100,0.00,,,0.04,AD6XL-WX-0.1,2013-02-23 17:29:00,
2013-02-23 09:35:00,39.8,39.8,30.31,North,-999,-999.0,-999.0,100,0.00,,,0.04,AD6XL-WX-0.1,2013-02-23 17:35:00,
2013-02-23 09:40:00,39.9,39.9,30.31,North,-999,-999.0,-999.0,100,0.00,,,0.04,AD6XL-WX-0.1,2013-02-23 17:40:00,
2013-02-23 09:45:00,40.1,40.1,30.32,North,-999,-999.0,-999.0,100,0.00,,,0.04,AD6XL-WX-0.1,2013-02-23 17:45:00,
2013-02-23 09:50:00,40.4,40.4,30.32,North,-999,-999.0,-999.0,100,0.00,,,0.04,AD6XL-WX-0.1,2013-02-23 17:50:00,
2013-02-23 09:55:00,40.7,40.7,30.32,North,-999,-999.0,-999.0,100,0.00,,,0.04,AD6XL-WX-0.1,2013-02-23 17:55:00,
2013-02-23 10:00:00,41.1,41.1,30.33,North,-999,-999.0,-999.0,100,0.00,,,0.04,AD6XL-WX-0.1,2013-02-23 18:00:00,
2013-02-23 10:05:00,41.5,41.5,30.33,North,-999,-999.0,-999.0,100,0.00,,,0.04,AD6XL-WX-0.1,2013-02-23 18:05:00,
2013-02-23 10:10:00,41.7,41.7,30.33,North,-999,-999.0,-999.0,100,0.00,,,0.04,AD6XL-WX-0.1,2013-02-23 18:10:00,
2013-02-23 10:15:00,42.1,42.1,30.33,North,-999,-999.0,-999.0,100,0.00,,,0.04,AD6XL-WX-0.1,2013-02-23 18:15:00,
2013-02-23 10:20:00,42.5,42.4,30.33,North,-999,-999.0,-999.0,99,0.00,,,0.04,AD6XL-WX-0.1,2013-02-23 18:20:00,
2013-02-23 10:25:00,43.0,42.8,30.33,North,-999,-999.0,-999.0,99,0.00,,,0.04,AD6XL-WX-0.1,2013-02-23 18:25:00,
2013-02-23 10:30:00,43.4,43.1,30.33,North,-999,-999.0,-999.0,98,0.00,,,0.04,AD6XL-WX-0.1,2013-02-23 18:30:00,
2013-02-23 10:36:00,43.7,43.2,30.33,North,-999,-999.0,-999.0,98,0.00,,,0.04,AD6XL-WX-0.1,2013-02-23 18:36:00,
2013-02-23 10:41:00,43.9,43.2,30.33,North,-999,-999.0,-999.0,97,0.00,,,0.04,AD6XL-WX-0.1,2013-02-23 18:41:00,
2013-02-23 10:46:00,44.1,43.2,30.33,North,-999,-999.0,-999.0,96,0.00,,,0.04,AD6XL-WX-0.1,2013-02-23 18:46:00,
2013-02-23 10:51:00,44.4,43.3,30.34,North,-999,-999.0,-999.0,95,0.00,,,0.04,AD6XL-WX-0.1,2013-02-23 18:51:00,
2013-02-23 10:56:00,44.7,43.5,30.33,North,-999,-999.0,-999.0,95,0.00,,,0.04,AD6XL-WX-0.1,2013-02-23 18:56:00,
2013-02-23 11:01:00,44.9,43.3,30.33,North,-999,-999.0,-999.0,93,0.00,,,0.04,AD6XL-WX-0.1,2013-02-23 19:01:00,
2013-02-23 11:06:00,45.1,43.2,30.34,North,-999,-999.0,-999.0,92,0.00,,,0.04,AD6XL-WX-0.1,2013-02-23 19:06:00,
2013-02-23 11:11:00,45.0,42.9,30.34,North,-999,-999.0,-999.0,92,0.00,,,0.04,AD6XL-WX-0.1,2013-02-23 19:11:00,
2013-02-23 11:16:00,44.9,42.9,30.34,North,-999,-999.0,-999.0,92,0.00,,,0.04,AD6XL-WX-0.1,2013-02-23 19:16:00,
2013-02-23 11:21:00,44.9,42.9,30.34,North,-999,-999.0,-999.0,92,0.00,,,0.04,AD6XL-WX-0.1,2013-02-23 19:21:00,
2013-02-23 11:26:00,44.9,42.9,30.35,North,-999,-999.0,-999.0,92,0.00,,,0.04,AD6XL-WX-0.1,2013-02-23 19:26:00,
2013-02-23 11:31:00,45.0,43.3,30.35,North,-999,-999.0,-999.0,93,0.00,,,0.04,AD6XL-WX-0.1,2013-02-23 19:31:00,
2013-02-23 11:36:00,45.2,43.6,30.35,North,-999,-999.0,-999.0,94,0.00,,,0.04,AD6XL-WX-0.1,2013-02-23 19:36:00,
2013-02-23 11:41:00,45.6,43.9,30.35,North,-999,-999.0,-999.0,93,0.00,,,0.04,AD6XL-WX-0.1,2013-02-23 19:41:00,
2013-02-23 11:47:00,46.0,43.8,30.35,North,-999,-999.0,-999.0,91,0.00,,,0.04,AD6XL-WX-0.1,2013-02-23 19:47:00,
2013-02-23 11:52:00,46.1,43.3,30.35,North,-999,-999.0,-999.0,89,0.00,,,0.04,AD6XL-WX-0.1,2013-02-23 19:52:00,
2013-02-23 11:57:00,46.2,43.2,30.35,North,-999,-999.0,-999.0,88,0.00,,,0.04,AD6XL-WX-0.1,2013-02-23 19:57:00,
2013-02-23 12:02:00,46.4,43.2,30.35,North,-999,-999.0,-999.0,88,0.00,,,0.04,AD6XL-WX-0.1,2013-02-23 20:02:00,
2013-02-23 12:07:00,46.6,43.3,30.35,North,-999,-999.0,-999.0,88,0.00,,,0.04,AD6XL-WX-0.1,2013-02-23 20:07:00,
2013-02-23 12:12:00,46.4,43.2,30.35,North,-999,-999.0,-999.0,88,0.00,,,0.04,AD6XL-WX-0.1,2013-02-23 20:12:00,
2013-02-23 12:17:00,46.2,42.9,30.35,North,-999,-999.0,-999.0,88,0.00,,,0.04,AD6XL-WX-0.1,2013-02-23 20:17:00,
2013-02-23 12:22:00,46.0,42.4,30.35,North,-999,-999.0,-999.0,87,0.00,,,0.04,AD6XL-WX-0.1,2013-02-23 20:22:00,
2013-02-23 12:27:00,45.7,42.6,30.35,North,-999,-999.0,-999.0,88,0.00,,,0.04,AD6XL-WX-0.1,2013-02-23 20:27:00,
2013-02-23 12:32:00,45.5,43.0,30.35,North,-999,-999.0,-999.0,91,0.00,,,0.04,AD6XL-WX-0.1,2013-02-23 20:32:00,
2013-02-23 12:37:00,45.3,43.4,30.35,North,-999,-999.0,-999.0,92,0.00,,,0.04,AD6XL-WX-0.1,2013-02-23 20:37:00,
2013-02-23 12:42:00,45.3,43.5,30.35,North,-999,-999.0,-999.0,93,0.00,,,0.04,AD6XL-WX-0.1,2013-02-23 20:42:00,
2013-02-23 12:47:00,45.3,43.8,30.35,North,-999,-999.0,-999.0,94,0.00,,,0.04,AD6XL-WX-0.1,2013-02-23 20:47:00,
2013-02-23 12:52:00,45.7,44.3,30.34,North,-999,-999.0,-999.0,94,0.00,,,0.04,AD6XL-WX-0.1,2013-02-23 20:52:00,
2013-02-23 12:58:00,46.3,44.5,30.34,North,-999,-999.0,-999.0,93,0.00,,,0.04,AD6XL-WX-0.1,2013-02-23 20:58:00,
2013-02-23 13:03:00,46.9,44.4,30.34,North,-999,-999.0,-999.0,91,0.00,,,0.04,AD6XL-WX-0.1,2013-02-23 21:03:00,
2013-02-23 13:08:00,47.5,44.6,30.34,North,-999,-999.0,-999.0,89,0.00,,,0.04,AD6XL-WX-0.1,2013-02-23 21:08:00,
2013-02-23 13:13:00,48.0,44.9,30.34,North,-999,-999.0,-999.0,88,0.00,,,0.04,AD6XL-WX-0.1,2013-02-23 21:13:00,
2013-02-23 13:18:00,48.7,44.9,30.34,North,-999,-999.0,-999.0,86,0.00,,,0.04,AD6XL-WX-0.1,2013-02-23 21:18:00,
2013-02-23 13:23:00,49.1,43.8,30.33,North,-999,-999.0,-999.0,82,0.00,,,0.04,AD6XL-WX-0.1,2013-02-23 21:23:00,
2013-02-23 13:28:00,49.4,43.7,30.33,North,-999,-999.0,-999.0,80,0.00,,,0.04,AD6XL-WX-0.1,2013-02-23 21:28:00,
2013-02-23 13:33:00,49.4,41.7,30.33,North,-999,-999.0,-999.0,74,0.00,,,0.04,AD6XL-WX-0.1,2013-02-23 21:33:00,
2013-02-23 13:38:00,49.3,41.6,30.33,North,-999,-999.0,-999.0,74,0.00,,,0.04,AD6XL-WX-0.1,2013-02-23 21:38:00,
2013-02-23 13:43:00,49.6,41.7,30.33,North,-999,-999.0,-999.0,74,0.00,,,0.04,AD6XL-WX-0.1,2013-02-23 21:43:00,
2013-02-23 13:48:00,49.8,41.0,30.33,North,-999,-999.0,-999.0,71,0.00,,,0.04,AD6XL-WX-0.1,2013-02-23 21:48:00,
2013-02-23 13:53:00,49.8,41.1,30.33,North,-999,-999.0,-999.0,71,0.00,,,0.04,AD6XL-WX-0.1,2013-02-23 21:53:00,
2013-02-23 13:58:00,49.9,40.9,30.33,North,-999,-999.0,-999.0,71,0.00,,,0.04,AD6XL-WX-0.1,2013-02-23 21:58:00,
2013-02-23 14:04:00,50.2,40.7,30.33,North,-999,-999.0,-999.0,69,0.00,,,0.04,AD6XL-WX-0.1,2013-02-23 22:04:00,
2013-02-23 14:09:00,50.4,41.4,30.33,North,-999,-999.0,-999.0,71,0.00,,,0.04,AD6XL-WX-0.1,2013-02-23 22:09:00,
2013-02-23 14:14:00,50.9,41.6,30.33,North,-999,-999.0,-999.0,70,0.00,,,0.04,AD6XL-WX-0.1,2013-02-23 22:14:00,
2013-02-23 14:19:00,51.5,40.8,30.33,North,-999,-999.0,-999.0,66,0.00,,,0.04,AD6XL-WX-0.1,2013-02-23 22:19:00,
2013-02-23 14:24:00,51.5,39.9,30.33,North,-999,-999.0,-999.0,64,0.00,,,0.04,AD6XL-WX-0.1,2013-02-23 22:24:00,
2013-02-23 14:29:00,51.1,40.9,30.34,North,-999,-999.0,-999.0,67,0.00,,,0.04,AD6XL-WX-0.1,2013-02-23 22:29:00,
2013-02-23 14:34:00,50.8,41.2,30.34,North,-999,-999.0,-999.0,69,0.00,,,0.04,AD6XL-WX-0.1,2013-02-23 22:34:00,
2013-02-23 14:39:00,50.5,40.4,30.34,North,-999,-999.0,-999.0,68,0.00,,,0.04,AD6XL-WX-0.1,2013-02-23 22:39:00,
2013-02-23 14:44:00,50.1,40.2,30.35,North,-999,-999.0,-999.0,68,0.00,,,0.04,AD6XL-WX-0.1,2013-02-23 22:44:00,
2013-02-23 14:49:00,49.7,39.7,30.35,North,-999,-999.0,-999.0,68,0.00,,,0.04,AD6XL-WX-0.1,2013-02-23 22:49:00,
2013-02-23 14:54:00,49.5,40.7,30.35,North,-999,-999.0,-999.0,71,0.00,,,0.04,AD6XL-WX-0.1,2013-02-23 22:54:00,
2013-02-23 14:59:00,49.2,41.6,30.35,North,-999,-999.0,-999.0,74,0.00,,,0.04,AD6XL-WX-0.1,2013-02-23 22:59:00,
2013-02-23 15:04:00,49.1,41.8,30.35,North,-999,-999.0,-999.0,75,0.00,,,0.04,AD6XL-WX-0.1,2013-02-23 23:04:00,
2013-02-23 15:09:00,49.2,42.3,30.35,North,-999,-999.0,-999.0,77,0.00,,,0.04,AD6XL-WX-0.1,2013-02-23 23:09:00,
2013-02-23 15:15:00,49.3,42.7,30.36,North,-999,-999.0,-999.0,77,0.00,,,0.04,AD6XL-WX-0.1,2013-02-23 23:15:00,
2013-02-23 15:20:00,49.2,41.5,30.36,North,-999,-999.0,-999.0,74,0.00,,,0.04,AD6XL-WX-0.1,2013-02-23 23:20:00,
2013-02-23 15:25:00,48.8,40.1,30.36,North,-999,-999.0,-999.0,71,0.00,,,0.04,AD6XL-WX-0.1,2013-02-23 23:25:00,
2013-02-23 15:30:00,48.6,39.4,30.36,North,-999,-999.0,-999.0,70,0.00,,,0.04,AD6XL-WX-0.1,2013-02-23 23:30:00,
2013-02-23 15:35:00,48.4,39.3,30.36,North,-999,-999.0,-999.0,70,0.00,,,0.04,AD6XL-WX-0.1,2013-02-23 23:35:00,
2013-02-23 15:40:00,48.3,39.5,30.36,North,-999,-999.0,-999.0,71,0.00,,,0.04,AD6XL-WX-0.1,2013-02-23 23:40:00,
2013-02-23 15:45:00,48.1,39.3,30.37,North,-999,-999.0,-999.0,71,0.00,,,0.04,AD6XL-WX-0.1,2013-02-23 23:45:00,
2013-02-23 15:50:00,47.9,39.2,30.37,North,-999,-999.0,-999.0,71,0.00,,,0.04,AD6XL-WX-0.1,2013-02-23 23:50:00,
2013-02-23 15:55:00,47.9,38.4,30.37,North,-999,-999.0,-999.0,69,0.00,,,0.04,AD6XL-WX-0.1,2013-02-23 23:55:00,
2013-02-23 16:00:00,47.8,37.7,30.37,North,-999,-999.0,-999.0,67,0.00,,,0.04,AD6XL-WX-0.1,2013-02-24 00:00:00,
2013-02-23 16:05:00,47.8,37.3,30.37,North,-999,-999.0,-999.0,66,0.00,,,0.04,AD6XL-WX-0.1,2013-02-24 00:05:00,
2013-02-23 16:10:00,47.8,37.8,30.37,North,-999,-999.0,-999.0,68,0.00,,,0.04,AD6XL-WX-0.1,2013-02-24 00:10:00,
2013-02-23 16:15:00,47.8,37.4,30.37,North,-999,-999.0,-999.0,67,0.00,,,0.04,AD6XL-WX-0.1,2013-02-24 00:15:00,
2013-02-23 16:20:00,47.6,37.3,30.38,North,-999,-999.0,-999.0,67,0.00,,,0.04,AD6XL-WX-0.1,2013-02-24 00:20:00,
2013-02-23 16:26:00,47.3,37.3,30.38,North,-999,-999.0,-999.0,67,0.00,,,0.04,AD6XL-WX-0.1,2013-02-24 00:26:00,
2013-02-23 16:31:00,47.1,37.8,30.38,North,-999,-999.0,-999.0,69,0.00,,,0.04,AD6XL-WX-0.1,2013-02-24 00:31:00,
2013-02-23 16:36:00,47.0,38.1,30.38,North,-999,-999.0,-999.0,71,0.00,,,0.04,AD6XL-WX-0.1,2013-02-24 00:36:00,
2013-02-23 16:41:00,46.8,37.5,30.38,North,-999,-999.0,-999.0,70,0.00,,,0.04,AD6XL-WX-0.1,2013-02-24 00:41:00,
2013-02-23 16:46:00,46.6,37.2,30.38,North,-999,-999.0,-999.0,69,0.01,,,0.05,AD6XL-WX-0.1,2013-02-24 00:46:00,
2013-02-23 16:51:00,46.6,37.2,30.38,North,-999,-999.0,-999.0,69,0.01,,,0.05,AD6XL-WX-0.1,2013-02-24 00:51:00,
2013-02-23 16:56:00,46.4,36.4,30.38,North,-999,-999.0,-999.0,67,0.01,,,0.05,AD6XL-WX-0.1,2013-02-24 00:56:00,
2013-02-23 17:01:00,46.3,36.1,30.38,North,-999,-999.0,-999.0,67,0.01,,,0.05,AD6XL-WX-0.1,2013-02-24 01:01:00,
2013-02-23 17:06:00,46.2,36.4,30.39,North,-999,-999.0,-999.0,68,0.01,,,0.05,AD6XL-WX-0.1,2013-02-24 01:06:00,
2013-02-23 17:11:00,46.1,36.5,30.39,North,-999,-999.0,-999.0,69,0.01,,,0.05,AD6XL-WX-0.1,2013-02-24 01:11:00,
2013-02-23 17:16:00,46.0,36.7,30.39,North,-999,-999.0,-999.0,69,0.01,,,0.05,AD6XL-WX-0.1,2013-02-24 01:16:00,
2013-02-23 17:21:00,45.9,36.9,30.39,North,-999,-999.0,-999.0,70,0.01,,,0.05,AD6XL-WX-0.1,2013-02-24 01:21:00,
2013-02-23 17:26:00,45.7,36.8,30.39,North,-999,-999.0,-999.0,70,0.01,,,0.05,AD6XL-WX-0.1,2013-02-24 01:26:00,
2013-02-23 17:31:00,45.6,36.9,30.39,North,-999,-999.0,-999.0,71,0.01,,,0.05,AD6XL-WX-0.1,2013-02-24 01:31:00,
2013-02-23 17:37:00,45.4,37.3,30.39,North,-999,-999.0,-999.0,73,0.01,,,0.05,AD6XL-WX-0.1,2013-02-24 01:37:00,
2013-02-23 17:42:00,45.2,38.0,30.39,North,-999,-999.0,-999.0,75,0.00,,,0.05,AD6XL-WX-0.1,2013-02-24 01:42:00,
2013-02-23 17:47:00,44.9,38.3,30.39,North,-999,-999.0,-999.0,77,0.00,,,0.05,AD6XL-WX-0.1,2013-02-24 01:47:00,
2013-02-23 17:52:00,44.6,38.1,30.39,North,-999,-999.0,-999.0,77,0.00,,,0.05,AD6XL-WX-0.1,2013-02-24 01:52:00,
2013-02-23 17:57:00,44.2,37.9,30.39,North,-999,-999.0,-999.0,78,0.00,,,0.05,AD6XL-WX-0.1,2013-02-24 01:57:00,
2013-02-23 18:02:00,43.7,37.7,30.40,North,-999,-999.0,-999.0,79,0.00,,,0.05,AD6XL-WX-0.1,2013-02-24 02:02:00,
2013-02-23 18:07:00,43.3,37.5,30.40,North,-999,-999.0,-999.0,79,0.00,,,0.05,AD6XL-WX-0.1,2013-02-24 02:07:00,
2013-02-23 18:12:00,42.8,37.3,30.40,North,-999,-999.0,-999.0,80,0.00,,,0.05,AD6XL-WX-0.1,2013-02-24 02:12:00,
2013-02-23 18:17:00,42.3,37.2,30.40,North,-999,-999.0,-999.0,82,0.00,,,0.05,AD6XL-WX-0.1,2013-02-24 02:17:00,
2013-02-23 18:22:00,41.8,37.1,30.40,North,-999,-999.0,-999.0,83,0.00,,,0.05,AD6XL-WX-0.1,2013-02-24 02:22:00,
2013-02-23 18:27:00,41.5,37.2,30.41,North,-999,-999.0,-999.0,84,0.00,,,0.05,AD6XL-WX-0.1,2013-02-24 02:27:00,
2013-02-23 18:32:00,41.0,37.1,30.41,North,-999,-999.0,-999.0,85,0.00,,,0.05,AD6XL-WX-0.1,2013-02-24 02:32:00,
2013-02-23 18:37:00,40.7,37.0,30.41,North,-999,-999.0,-999.0,86,0.00,,,0.05,AD6XL-WX-0.1,2013-02-24 02:37:00,
2013-02-23 18:43:00,40.3,36.8,30.42,North,-999,-999.0,-999.0,87,0.00,,,0.05,AD6XL-WX-0.1,2013-02-24 02:43:00,
2013-02-23 18:48:00,40.0,36.7,30.42,North,-999,-999.0,-999.0,87,0.00,,,0.05,AD6XL-WX-0.1,2013-02-24 02:48:00,
2013-02-23 18:53:00,39.8,36.6,30.42,North,-999,-999.0,-999.0,88,0.00,,,0.05,AD6XL-WX-0.1,2013-02-24 02:53:00,
2013-02-23 18:58:00,39.7,36.6,30.42,North,-999,-999.0,-999.0,88,0.00,,,0.05,AD6XL-WX-0.1,2013-02-24 02:58:00,
2013-02-23 19:03:00,39.5,36.5,30.42,North,-999,-999.0,-999.0,88,0.00,,,0.05,AD6XL-WX-0.1,2013-02-24 03:03:00,
2013-02-23 19:08:00,39.4,36.5,30.42,North,-999,-999.0,-999.0,89,0.00,,,0.05,AD6XL-WX-0.1,2013-02-24 03:08:00,
2013-02-23 19:13:00,39.2,36.5,30.42,North,-999,-999.0,-999.0,89,0.00,,,0.05,AD6XL-WX-0.1,2013-02-24 03:13:00,
2013-02-23 19:18:00,39.0,36.5,30.43,North,-999,-999.0,-999.0,90,0.00,,,0.05,AD6XL-WX-0.1,2013-02-24 03:18:00,
2013-02-23 19:23:00,38.9,36.5,30.43,North,-999,-999.0,-999.0,91,0.00,,,0.05,AD6XL-WX-0.1,2013-02-24 03:23:00,
2013-02-23 19:28:00,38.7,36.4,30.43,North,-999,-999.0,-999.0,91,0.00,,,0.05,AD6XL-WX-0.1,2013-02-24 03:28:00,
2013-02-23 19:33:00,38.6,36.5,30.42,North,-999,-999.0,-999.0,91,0.00,,,0.05,AD6XL-WX-0.1,2013-02-24 03:33:00,
2013-02-23 19:38:00,38.5,36.4,30.42,North,-999,-999.0,-999.0,92,0.00,,,0.05,AD6XL-WX-0.1,2013-02-24 03:38:00,
2013-02-23 19:43:00,38.3,36.3,30.42,North,-999,-999.0,-999.0,92,0.00,,,0.05,AD6XL-WX-0.1,2013-02-24 03:43:00,
2013-02-23 19:48:00,38.1,36.2,30.42,North,-999,-999.0,-999.0,92,0.00,,,0.05,AD6XL-WX-0.1,2013-02-24 03:48:00,
2013-02-23 19:54:00,37.8,36.0,30.43,North,-999,-999.0,-999.0,93,0.00,,,0.05,AD6XL-WX-0.1,2013-02-24 03:54:00,
2013-02-23 19:59:00,37.6,35.9,30.43,North,-999,-999.0,-999.0,93,0.00,,,0.05,AD6XL-WX-0.1,2013-02-24 03:59:00,
2013-02-23 20:04:00,37.5,35.9,30.43,North,-999,-999.0,-999.0,93,0.00,,,0.05,AD6XL-WX-0.1,2013-02-24 04:04:00,
2013-02-23 20:09:00,37.4,36.0,30.43,North,-999,-999.0,-999.0,94,0.00,,,0.05,AD6XL-WX-0.1,2013-02-24 04:09:00,
2013-02-23 20:14:00,37.4,36.0,30.43,North,-999,-999.0,-999.0,94,0.00,,,0.05,AD6XL-WX-0.1,2013-02-24 04:14:00,
2013-02-23 20:19:00,37.4,36.0,30.43,North,-999,-999.0,-999.0,94,0.00,,,0.05,AD6XL-WX-0.1,2013-02-24 04:19:00,
2013-02-23 20:24:00,37.3,36.0,30.43,North,-999,-999.0,-999.0,94,0.00,,,0.05,AD6XL-WX-0.1,2013-02-24 04:24:00,
2013-02-23 20:29:00,37.2,36.0,30.43,North,-999,-999.0,-999.0,95,0.00,,,0.05,AD6XL-WX-0.1,2013-02-24 04:29:00,
2013-02-23 20:34:00,37.2,36.1,30.43,North,-999,-999.0,-999.0,95,0.00,,,0.05,AD6XL-WX-0.1,2013-02-24 04:34:00,
2013-02-23 20:39:00,37.2,36.3,30.43,North,-999,-999.0,-999.0,96,0.00,,,0.05,AD6XL-WX-0.1,2013-02-24 04:39:00,
2013-02-23 20:44:00,37.0,36.1,30.44,North,-999,-999.0,-999.0,96,0.00,,,0.05,AD6XL-WX-0.1,2013-02-24 04:44:00,
2013-02-23 20:49:00,36.8,35.9,30.44,North,-999,-999.0,-999.0,96,0.00,,,0.05,AD6XL-WX-0.1,2013-02-24 04:49:00,
2013-02-23 20:54:00,36.7,35.8,30.44,North,-999,-999.0,-999.0,96,0.00,,,0.05,AD6XL-WX-0.1,2013-02-24 04:54:00,
2013-02-23 20:59:00,36.5,35.8,30.44,North,-999,-999.0,-999.0,97,0.00,,,0.05,AD6XL-WX-0.1,2013-02-24 04:59:00,
2013-02-23 21:00:00,36.5,35.8,30.44,North,-999,-999.0,-999.0,97,0.00,,,0.05,AD6XL-WX-0.1,2013-02-24 05:00:00,
2013-02-23 21:01:00,36.4,35.7,30.44,North,-999,-999.0,-999.0,97,0.00,,,0.05,AD6XL-WX-0.1,2013-02-24 05:01:00,
2013-02-23 21:07:00,36.3,35.6,30.44,North,-999,-999.0,-999.0,97,0.00,,,0.05,AD6XL-WX-0.1,2013-02-24 05:07:00,
2013-02-23 21:12:00,36.3,35.8,30.44,North,-999,-999.0,-999.0,98,0.00,,,0.05,AD6XL-WX-0.1,2013-02-24 05:12:00,
2013-02-23 21:17:00,36.3,35.8,30.44,North,-999,-999.0,-999.0,97,0.00,,,0.05,AD6XL-WX-0.1,2013-02-24 05:17:00,
2013-02-23 21:22:00,36.2,35.7,30.44,North,-999,-999.0,-999.0,97,0.00,,,0.05,AD6XL-WX-0.1,2013-02-24 05:22:00,
2013-02-23 21:27:00,36.1,35.6,30.44,North,-999,-999.0,-999.0,98,0.00,,,0.05,AD6XL-WX-0.1,2013-02-24 05:27:00,
2013-02-23 21:32:00,35.9,35.5,30.44,North,-999,-999.0,-999.0,98,0.00,,,0.05,AD6XL-WX-0.1,2013-02-24 05:32:00,
2013-02-23 21:37:00,35.8,35.4,30.44,North,-999,-999.0,-999.0,98,0.00,,,0.05,AD6XL-WX-0.1,2013-02-24 05:37:00,
2013-02-23 21:42:00,35.6,35.2,30.44,North,-999,-999.0,-999.0,98,0.00,,,0.05,AD6XL-WX-0.1,2013-02-24 05:42:00,
2013-02-23 21:47:00,35.4,35.1,30.44,North,-999,-999.0,-999.0,98,0.00,,,0.05,AD6XL-WX-0.1,2013-02-24 05:47:00,
2013-02-23 21:52:00,35.2,34.9,30.45,North,-999,-999.0,-999.0,98,0.00,,,0.05,AD6XL-WX-0.1,2013-02-24 05:52:00,
2013-02-23 21:57:00,35.0,34.6,30.45,North,-999,-999.0,-999.0,98,0.00,,,0.05,AD6XL-WX-0.1,2013-02-24 05:57:00,
2013-02-23 22:02:00,34.9,34.5,30.44,North,-999,-999.0,-999.0,98,0.00,,,0.05,AD6XL-WX-0.1,2013-02-24 06:02:00,
2013-02-23 22:07:00,34.8,34.5,30.44,North,-999,-999.0,-999.0,98,0.00,,,0.05,AD6XL-WX-0.1,2013-02-24 06:07:00,
2013-02-23 22:12:00,34.7,34.5,30.44,North,-999,-999.0,-999.0,99,0.00,,,0.05,AD6XL-WX-0.1,2013-02-24 06:12:00,
2013-02-23 22:18:00,34.7,34.5,30.44,North,-999,-999.0,-999.0,99,0.00,,,0.05,AD6XL-WX-0.1,2013-02-24 06:18:00,
2013-02-23 22:23:00,34.5,34.5,30.44,North,-999,-999.0,-999.0,99,0.00,,,0.05,AD6XL-WX-0.1,2013-02-24 06:23:00,
2013-02-23 22:28:00,34.5,34.5,30.44,North,-999,-999.0,-999.0,99,0.00,,,0.05,AD6XL-WX-0.1,2013-02-24 06:28:00,
2013-02-23 22:33:00,34.5,34.5,30.44,North,-999,-999.0,-999.0,99,0.00,,,0.05,AD6XL-WX-0.1,2013-02-24 06:33:00,
2013-02-23 22:38:00,34.6,34.6,30.44,North,-999,-999.0,-999.0,100,0.00,,,0.05,AD6XL-WX-0.1,2013-02-24 06:38:00,
2013-02-23 22:43:00,34.7,34.7,30.44,North,-999,-999.0,-999.0,100,0.00,,,0.05,AD6XL-WX-0.1,2013-02-24 06:43:00,
2013-02-23 22:48:00,34.8,34.8,30.44,North,-999,-999.0,-999.0,100,0.00,,,0.05,AD6XL-WX-0.1,2013-02-24 06:48:00,
2013-02-23 22:53:00,35.0,35.0,30.44,North,-999,-999.0,-999.0,100,0.00,,,0.05,AD6XL-WX-0.1,2013-02-24 06:53:00,
2013-02-23 22:58:00,35.1,35.1,30.44,North,-999,-999.0,-999.0,100,0.00,,,0.05,AD6XL-WX-0.1,2013-02-24 06:58:00,
2013-02-23 23:03:00,35.2,35.2,30.44,North,-999,-999.0,-999.0,100,0.00,,,0.05,AD6XL-WX-0.1,2013-02-24 07:03:00,
2013-02-23 23:08:00,35.2,35.2,30.44,North,-999,-999.0,-999.0,100,0.00,,,0.05,AD6XL-WX-0.1,2013-02-24 07:08:00,
2013-02-23 23:13:00,35.3,35.3,30.45,North,-999,-999.0,-999.0,100,0.00,,,0.05,AD6XL-WX-0.1,2013-02-24 07:13:00,
2013-02-23 23:19:00,35.4,35.4,30.45,North,-999,-999.0,-999.0,100,0.00,,,0.05,AD6XL-WX-0.1,2013-02-24 07:19:00,
2013-02-23 23:24:00,35.5,35.5,30.46,North,-999,-999.0,-999.0,100,0.00,,,0.05,AD6XL-WX-0.1,2013-02-24 07:24:00,
2013-02-23 23:29:00,35.7,35.7,30.46,North,-999,-999.0,-999.0,100,0.00,,,0.05,AD6XL-WX-0.1,2013-02-24 07:29:00,
2013-02-23 23:34:00,35.9,35.9,30.46,North,-999,-999.0,-999.0,100,0.00,,,0.05,AD6XL-WX-0.1,2013-02-24 07:34:00,
2013-02-23 23:39:00,36.0,36.0,30.45,North,-999,-999.0,-999.0,100,0.00,,,0.05,AD6XL-WX-0.1,2013-02-24 07:39:00,
2013-02-23 23:44:00,36.0,36.0,30.45,North,-999,-999.0,-999.0,100,0.00,,,0.05,AD6XL-WX-0.1,2013-02-24 07:44:00,
2013-02-23 23:49:00,36.0,36.0,30.45,North,-999,-999.0,-999.0,100,0.00,,,0.05,AD6XL-WX-0.1,2013-02-24 07:49:00,
2013-02-23 23:54:00,36.0,36.0,30.45,North,-999,-999.0,-999.0,100,0.00,,,0.05,AD6XL-WX-0.1,2013-02-24 07:54:00,
2013-02-23 23:59:00,36.0,36.0,30.45,North,-999,-999.0,-999.0,100,0.00,,,0.05,AD6XL-WX-0.1,2013-02-24 07:59:00,